createdAt,value
2018-09-04T00:02:25.673Z,11.67
2018-09-04T00:05:30.609Z,12.40
2018-09-04T00:08:35.638Z,11.27
2018-09-04T00:11:40.556Z,11.90
2018-09-04T00:14:45.517Z,11.37
2018-09-04T00:17:50.432Z,11.60
2018-09-04T00:20:55.329Z,11.53
2018-09-04T00:24:00.739Z,11.37
2018-09-04T00:27:05.666Z,11.77
2018-09-04T00:30:10.600Z,12.80
2018-09-04T00:33:15.536Z,12.67
2018-09-04T00:36:20.438Z,12.50
2018-09-04T00:39:25.365Z,12.20
2018-09-04T00:42:30.284Z,12.90
2018-09-04T00:45:35.280Z,12.23
2018-09-04T00:48:40.237Z,12.90
2018-09-04T00:51:45.160Z,12.90
2018-09-04T00:54:50.157Z,12.40
2018-09-04T00:57:55.089Z,13.50
2018-09-04T01:01:00.010Z,12.37
2018-09-04T01:04:05.244Z,13.70
2018-09-04T01:07:10.166Z,13.20
2018-09-04T01:10:15.066Z,13.80
2018-09-04T01:13:20.024Z,13.10
2018-09-04T01:16:24.944Z,11.93
2018-09-04T01:19:29.868Z,11.77
2018-09-04T01:22:34.830Z,12.33
2018-09-04T01:25:39.753Z,12.70
2018-09-04T01:28:44.689Z,12.27
2018-09-04T01:31:49.646Z,11.70
2018-09-04T01:34:54.581Z,12.37
2018-09-04T01:37:59.538Z,11.97
2018-09-04T01:41:04.617Z,12.27
2018-09-04T01:44:09.525Z,13.17
2018-09-04T01:47:14.465Z,12.03
2018-09-04T01:50:19.383Z,12.60
2018-09-04T01:53:24.319Z,12.93
2018-09-04T01:56:29.238Z,13.43
2018-09-04T01:59:34.172Z,12.97
2018-09-04T02:02:39.121Z,13.47
2018-09-04T02:05:44.090Z,12.63
2018-09-04T02:08:49.006Z,14.43
2018-09-04T02:11:54.165Z,13.03
2018-09-04T02:14:59.094Z,12.60
2018-09-04T02:18:04.273Z,13.53
2018-09-04T02:21:09.225Z,13.20
2018-09-04T02:24:14.169Z,13.80
2018-09-04T02:27:25.254Z,13.20
2018-09-04T02:30:30.163Z,13.23
2018-09-04T02:33:35.261Z,12.33
2018-09-04T02:36:40.193Z,12.80
2018-09-04T02:39:45.109Z,13.20
2018-09-04T02:42:50.081Z,13.40
2018-09-04T02:45:55.002Z,14.00
2018-09-04T02:48:59.936Z,13.17
2018-09-04T02:52:05.395Z,13.00
2018-09-04T02:55:10.927Z,13.13
2018-09-04T02:58:15.910Z,12.50
2018-09-04T03:01:20.873Z,12.10
2018-09-04T03:04:25.784Z,13.57
2018-09-04T03:07:30.716Z,14.33
2018-09-04T03:10:35.639Z,13.40
2018-09-04T03:13:40.592Z,13.07
2018-09-04T03:16:45.524Z,13.90
2018-09-04T03:19:50.473Z,13.57
2018-09-04T03:22:55.668Z,12.17
2018-09-04T03:26:00.640Z,12.70
2018-09-04T03:29:05.578Z,12.07
2018-09-04T03:32:10.504Z,14.43
2018-09-04T03:35:15.431Z,13.70
2018-09-04T03:38:20.382Z,13.40
2018-09-04T03:41:25.297Z,13.87
2018-09-04T03:44:30.323Z,14.37
2018-09-04T03:47:35.149Z,12.40
2018-09-04T03:50:40.300Z,13.47
2018-09-04T03:53:45.255Z,14.07
2018-09-04T03:56:50.187Z,13.57
2018-09-04T03:59:55.135Z,16.03
2018-09-04T04:03:00.058Z,15.00
2018-09-04T04:06:05.061Z,15.33
2018-09-04T04:09:10.904Z,22.57
2018-09-04T04:12:15.837Z,20.00
2018-09-04T04:15:20.773Z,15.90
2018-09-04T04:18:25.718Z,13.73
2018-09-04T04:21:30.658Z,13.63
2018-09-04T04:24:35.602Z,13.63
2018-09-04T04:27:40.521Z,13.67
2018-09-04T04:30:45.432Z,13.93
2018-09-04T04:33:50.342Z,13.97
2018-09-04T04:36:55.236Z,12.90
2018-09-04T04:40:00.225Z,15.57
2018-09-04T04:43:05.117Z,14.77
2018-09-04T04:46:10.025Z,15.27
2018-09-04T04:49:14.960Z,13.97
2018-09-04T04:52:19.861Z,13.90
2018-09-04T04:55:24.809Z,14.33
2018-09-04T04:58:29.749Z,13.30
2018-09-04T05:01:34.703Z,13.77
2018-09-04T05:04:39.613Z,14.60
2018-09-04T05:07:44.537Z,14.43
2018-09-04T05:10:49.428Z,13.80
2018-09-04T05:13:54.385Z,15.27
2018-09-04T05:16:59.347Z,13.63
2018-09-04T05:20:04.569Z,14.90
2018-09-04T05:23:09.553Z,14.30
2018-09-04T05:26:14.475Z,12.93
2018-09-04T05:29:19.434Z,12.47
2018-09-04T05:32:31.965Z,13.13
2018-09-04T05:35:43.476Z,13.83
2018-09-04T05:38:48.415Z,14.47
2018-09-04T05:41:53.424Z,14.20
2018-09-04T05:44:58.408Z,13.43
2018-09-04T05:48:18.390Z,13.37
2018-09-04T05:51:23.322Z,12.87
2018-09-04T05:54:28.292Z,12.93
2018-09-04T05:57:33.233Z,14.10
2018-09-04T06:00:52.429Z,14.00
2018-09-04T06:03:57.389Z,12.37
2018-09-04T06:07:02.324Z,14.77
2018-09-04T06:10:07.388Z,14.00
2018-09-04T06:13:12.310Z,13.97
2018-09-04T06:16:17.390Z,13.77
2018-09-04T06:19:22.354Z,14.40
2018-09-04T06:22:27.341Z,12.67
2018-09-04T06:25:32.282Z,13.43
2018-09-04T06:28:37.234Z,13.90
2018-09-04T06:31:42.151Z,14.17
2018-09-04T06:34:47.077Z,13.50
2018-09-04T06:37:51.995Z,13.77
2018-09-04T06:40:56.923Z,13.10
2018-09-04T06:44:01.873Z,14.00
2018-09-04T06:47:06.816Z,14.00
2018-09-04T06:50:11.783Z,17.33
2018-09-04T06:53:16.727Z,14.03
2018-09-04T06:56:21.703Z,14.70
2018-09-04T06:59:26.689Z,13.40
2018-09-04T07:02:31.613Z,13.33
2018-09-04T07:05:36.569Z,13.90
2018-09-04T07:08:41.501Z,17.97
2018-09-04T07:11:46.442Z,15.20
2018-09-04T07:14:51.405Z,12.83
2018-09-04T07:17:56.445Z,14.27
2018-09-04T07:21:01.565Z,19.13
2018-09-04T07:24:06.486Z,15.47
2018-09-04T07:27:11.458Z,15.37
2018-09-04T07:30:16.403Z,15.70
2018-09-04T07:33:21.638Z,15.70
2018-09-04T07:36:26.604Z,16.33
2018-09-04T07:39:31.555Z,20.40
2018-09-04T07:42:36.550Z,18.93
2018-09-04T07:45:41.544Z,18.07
2018-09-04T07:48:46.531Z,19.17
2018-09-04T07:51:51.855Z,19.47
2018-09-04T07:54:56.949Z,21.00
2018-09-04T07:58:01.923Z,19.40
2018-09-04T08:01:06.969Z,22.57
2018-09-04T08:04:11.898Z,27.40
2018-09-04T08:07:16.899Z,27.50
2018-09-04T08:10:21.842Z,24.83
2018-09-04T08:13:26.781Z,20.80
2018-09-04T08:16:31.734Z,19.93
2018-09-04T08:19:36.657Z,21.33
2018-09-04T08:22:41.624Z,24.67
2018-09-04T08:25:46.559Z,22.33
2018-09-04T08:28:51.497Z,21.03
2018-09-04T08:31:56.441Z,21.33
2018-09-04T08:35:02.164Z,20.77
2018-09-04T08:38:07.100Z,19.20
2018-09-04T08:41:12.010Z,18.07
2018-09-04T08:44:16.940Z,17.17
2018-09-04T08:47:21.970Z,17.60
2018-09-04T08:50:27.581Z,17.10
2018-09-04T08:53:32.504Z,16.03
2018-09-04T08:56:37.409Z,15.03
2018-09-04T08:59:42.405Z,14.87
2018-09-04T09:02:47.319Z,15.40
2018-09-04T09:05:52.489Z,16.03
2018-09-04T09:08:57.426Z,15.73
2018-09-04T09:12:02.421Z,15.07
2018-09-04T09:15:07.401Z,11.80
2018-09-04T09:18:12.448Z,10.50
2018-09-04T09:21:17.437Z,11.67
2018-09-04T09:24:22.379Z,11.47
2018-09-04T09:27:27.450Z,11.37
2018-09-04T09:30:33.056Z,11.40
2018-09-04T09:33:38.001Z,9.97
2018-09-04T09:36:43.014Z,10.23
2018-09-04T09:39:47.937Z,9.87
2018-09-04T09:42:52.874Z,9.10
2018-09-04T09:45:57.880Z,9.00
2018-09-04T09:49:02.848Z,7.47
2018-09-04T09:52:07.805Z,7.87
2018-09-04T09:55:12.740Z,8.67
2018-09-04T09:58:17.709Z,8.17
2018-09-04T10:01:28.458Z,9.53
2018-09-04T10:04:33.407Z,8.40
2018-09-04T10:07:38.477Z,9.17
2018-09-04T10:10:43.479Z,8.17
2018-09-04T10:13:49.013Z,8.20
2018-09-04T10:16:53.993Z,7.93
2018-09-04T10:19:59.128Z,8.47
2018-09-04T10:23:04.069Z,7.43
2018-09-04T10:26:09.080Z,8.17
2018-09-04T10:29:14.053Z,6.87
2018-09-04T10:32:19.034Z,8.13
2018-09-04T10:35:24.073Z,7.10
2018-09-04T10:38:29.076Z,6.67
2018-09-04T10:41:34.051Z,6.30
2018-09-04T10:44:39.070Z,6.40
2018-09-04T10:47:44.057Z,5.80
2018-09-04T10:50:49.057Z,5.73
2018-09-04T10:53:54.025Z,5.87
2018-09-04T10:56:59.023Z,5.90
2018-09-04T11:00:04.062Z,6.70
2018-09-04T11:03:09.069Z,7.57
2018-09-04T11:06:14.028Z,6.50
2018-09-04T11:09:19.039Z,6.50
2018-09-04T11:12:23.969Z,6.63
2018-09-04T11:15:28.942Z,6.20
2018-09-04T11:18:33.880Z,6.90
2018-09-04T11:21:38.978Z,6.00
2018-09-04T11:24:43.984Z,6.43
2018-09-04T11:27:48.932Z,6.20
2018-09-04T11:30:53.905Z,6.10
2018-09-04T11:33:58.866Z,6.57
2018-09-04T11:37:03.916Z,5.80
2018-09-04T11:40:09.147Z,6.37
2018-09-04T11:43:14.094Z,6.00
2018-09-04T11:46:19.044Z,5.60
2018-09-04T11:49:24.005Z,6.17
2018-09-04T11:52:29.098Z,5.97
2018-09-04T11:55:33.985Z,5.60
2018-09-04T11:58:39.124Z,6.33
2018-09-04T12:01:47.597Z,5.87
2018-09-04T12:04:52.583Z,6.17
2018-09-04T12:07:57.641Z,6.23
2018-09-04T12:11:02.616Z,6.00
2018-09-04T12:14:07.607Z,6.50
2018-09-04T12:17:12.649Z,5.57
2018-09-04T12:20:34.259Z,6.67
2018-09-04T12:23:39.600Z,6.50
2018-09-04T12:26:44.582Z,5.57
2018-09-04T12:29:49.529Z,6.27
2018-09-04T12:32:54.572Z,5.67
2018-09-04T12:35:59.528Z,6.10
2018-09-04T12:39:05.330Z,5.97
2018-09-04T12:42:10.305Z,5.97
2018-09-04T12:45:15.261Z,6.00
2018-09-04T12:48:24.750Z,5.27
2018-09-04T12:51:29.732Z,5.23
2018-09-04T12:54:34.736Z,5.27
2018-09-04T12:57:39.639Z,5.23
2018-09-04T13:00:45.594Z,5.60
2018-09-04T13:03:50.544Z,5.43
2018-09-04T13:06:55.973Z,5.30
2018-09-04T13:10:01.633Z,5.00
2018-09-04T13:13:06.578Z,5.20
2018-09-04T13:16:11.599Z,4.90
2018-09-04T13:19:16.485Z,5.83
2018-09-04T13:22:21.482Z,4.63
2018-09-04T13:25:26.424Z,4.97
2018-09-04T13:28:32.181Z,4.30
2018-09-04T13:31:37.082Z,4.53
2018-09-04T13:34:41.991Z,4.57
2018-09-04T13:37:46.900Z,4.47
2018-09-04T13:40:57.597Z,4.60
2018-09-04T13:44:02.562Z,4.30
2018-09-04T13:47:07.509Z,4.40
2018-09-04T13:50:12.505Z,4.80
2018-09-04T13:53:17.457Z,4.20
2018-09-04T13:56:22.385Z,4.87
2018-09-04T13:59:27.295Z,4.63
2018-09-04T14:02:32.281Z,4.30
2018-09-04T14:05:37.237Z,4.47
2018-09-04T14:08:42.197Z,4.60
2018-09-04T14:11:47.141Z,4.90
2018-09-04T14:14:52.059Z,4.60
2018-09-04T14:17:57.005Z,3.90
2018-09-04T14:21:02.168Z,4.27
2018-09-04T14:24:07.057Z,4.27
2018-09-04T14:27:12.005Z,4.40
2018-09-04T14:30:16.999Z,4.10
2018-09-04T14:33:21.936Z,4.30
2018-09-04T14:36:26.987Z,4.50
2018-09-04T14:39:31.862Z,4.60
2018-09-04T14:42:36.822Z,4.47
2018-09-04T14:45:41.828Z,4.20
2018-09-04T14:48:46.809Z,4.50
2018-09-04T14:51:51.761Z,4.13
2018-09-04T14:54:56.809Z,4.30
2018-09-04T14:58:01.761Z,4.47
2018-09-04T15:01:06.737Z,3.83
2018-09-04T15:04:11.713Z,4.50
2018-09-04T15:07:16.723Z,4.50
2018-09-04T15:10:21.636Z,4.00
2018-09-04T15:13:26.599Z,4.13
2018-09-04T15:16:31.611Z,4.13
2018-09-04T15:19:36.594Z,3.93
2018-09-04T15:22:41.587Z,4.63
2018-09-04T15:25:46.571Z,4.23
2018-09-04T15:28:51.562Z,4.33
2018-09-04T15:31:56.569Z,4.30
2018-09-04T15:35:01.528Z,4.60
2018-09-04T15:38:06.503Z,4.43
2018-09-04T15:41:11.452Z,5.03
2018-09-04T15:44:16.456Z,5.77
2018-09-04T15:47:21.501Z,6.03
2018-09-04T15:50:26.437Z,5.70
2018-09-04T15:53:31.382Z,6.07
2018-09-04T15:56:36.348Z,5.37
2018-09-04T15:59:41.293Z,5.30
2018-09-04T16:02:46.260Z,4.77
2018-09-04T16:05:51.217Z,5.17
2018-09-04T16:08:56.315Z,5.07
2018-09-04T16:12:01.399Z,5.97
2018-09-04T16:15:06.397Z,5.93
2018-09-04T16:18:11.445Z,5.77
2018-09-04T16:21:16.571Z,6.57
2018-09-04T16:24:21.602Z,5.90
2018-09-04T16:27:26.504Z,6.23
2018-09-04T16:30:31.420Z,7.30
2018-09-04T16:33:36.449Z,7.33
2018-09-04T16:36:41.404Z,7.77
2018-09-04T16:39:46.345Z,7.37
2018-09-04T16:42:52.793Z,7.50
2018-09-04T16:45:58.813Z,7.63
2018-09-04T16:49:04.137Z,8.17
2018-09-04T16:52:09.599Z,7.13
2018-09-04T16:55:14.549Z,7.07
2018-09-04T16:58:19.761Z,6.57
2018-09-04T17:01:24.729Z,7.40
2018-09-04T17:04:29.862Z,7.23
2018-09-04T17:07:34.873Z,7.77
2018-09-04T17:10:40.348Z,7.10
2018-09-04T17:13:45.481Z,6.70
2018-09-04T17:16:51.066Z,6.93
2018-09-04T17:19:56.676Z,7.07
2018-09-04T17:23:01.657Z,7.50
2018-09-04T17:26:06.708Z,7.33
2018-09-04T17:29:11.661Z,7.67
2018-09-04T17:32:16.739Z,7.43
2018-09-04T17:35:22.713Z,7.30
2018-09-04T17:38:27.971Z,7.63
2018-09-04T17:41:33.571Z,9.77
2018-09-04T17:44:38.966Z,10.70
2018-09-04T17:47:44.449Z,9.67
2018-09-04T17:50:49.418Z,7.20
2018-09-04T17:53:54.769Z,7.47
2018-09-04T17:57:00.134Z,6.90
2018-09-04T18:00:06.237Z,7.07
2018-09-04T18:03:11.670Z,7.60
2018-09-04T18:06:16.661Z,7.87
2018-09-04T18:09:21.692Z,8.37
2018-09-04T18:12:26.776Z,7.97
2018-09-04T18:15:31.858Z,7.53
2018-09-04T18:18:37.129Z,7.80
2018-09-04T18:21:42.397Z,7.53
2018-09-04T18:24:47.542Z,8.03
2018-09-04T18:27:52.491Z,7.80
2018-09-04T18:30:57.476Z,7.13
2018-09-04T18:34:03.827Z,7.87
2018-09-04T18:37:08.837Z,7.67
2018-09-04T18:40:13.990Z,7.67
2018-09-04T18:43:18.918Z,8.20
2018-09-04T18:46:24.341Z,7.70
2018-09-04T18:49:29.267Z,7.40
2018-09-04T18:52:34.351Z,7.43
2018-09-04T18:55:39.330Z,7.97
2018-09-04T18:58:44.258Z,7.80
2018-09-04T19:01:49.725Z,7.87
2018-09-04T19:04:55.102Z,7.33
2018-09-04T19:08:00.313Z,8.20
2018-09-04T19:11:05.449Z,7.87
2018-09-04T19:14:10.816Z,8.07
2018-09-04T19:17:15.738Z,7.93
2018-09-04T19:20:21.025Z,8.27
2018-09-04T19:23:25.935Z,8.60
2018-09-04T19:26:31.060Z,8.87
2018-09-04T19:29:36.461Z,8.80
2018-09-04T19:32:41.666Z,8.23
2018-09-04T19:35:46.598Z,8.80
2018-09-04T19:38:51.566Z,7.97
2018-09-04T19:41:56.515Z,8.97
2018-09-04T19:45:01.841Z,8.40
2018-09-04T19:48:06.899Z,8.30
2018-09-04T19:51:11.942Z,7.67
2018-09-04T19:54:17.258Z,8.27
2018-09-04T19:57:22.358Z,8.57
2018-09-04T20:00:27.697Z,8.53
2018-09-04T20:03:32.971Z,9.33
2018-09-04T20:06:38.219Z,8.17
2018-09-04T20:09:43.189Z,8.13
2018-09-04T20:12:48.585Z,7.73
2018-09-04T20:15:53.536Z,8.67
2018-09-04T20:18:58.957Z,8.40
2018-09-04T20:22:05.826Z,8.80
2018-09-04T20:25:12.197Z,8.57
2018-09-04T20:28:17.178Z,8.50
2018-09-04T20:31:22.138Z,8.07
2018-09-04T20:34:27.356Z,8.57
2018-09-04T20:37:32.814Z,8.70
2018-09-04T20:40:37.946Z,8.87
2018-09-04T20:43:43.393Z,8.97
2018-09-04T20:46:48.419Z,9.17
2018-09-04T20:49:53.464Z,9.07
2018-09-04T20:52:58.439Z,9.50
2018-09-04T20:56:03.405Z,9.33
2018-09-04T20:59:20.217Z,9.00
2018-09-04T21:02:36.849Z,9.53
2018-09-04T21:05:53.509Z,9.07
2018-09-04T21:09:05.084Z,9.00
2018-09-04T21:12:10.040Z,9.03
2018-09-04T21:15:14.966Z,9.30
2018-09-04T21:18:19.897Z,9.20
2018-09-04T21:21:24.852Z,8.97
2018-09-04T21:24:29.841Z,9.30
2018-09-04T21:27:34.794Z,9.17
2018-09-04T21:30:39.763Z,9.23
2018-09-04T21:33:44.717Z,9.53
2018-09-04T21:36:49.687Z,9.10
2018-09-04T21:39:54.622Z,9.17
2018-09-04T21:42:59.565Z,9.37
2018-09-04T21:46:04.620Z,9.03
2018-09-04T21:49:09.576Z,9.80
2018-09-04T21:52:14.508Z,9.30
2018-09-04T21:55:19.447Z,9.30
2018-09-04T22:02:10.862Z,10.17
2018-09-04T22:05:15.884Z,9.73
2018-09-04T22:08:20.848Z,9.93
2018-09-04T22:11:25.820Z,10.20
2018-09-04T22:14:30.788Z,9.63
2018-09-04T22:17:36.502Z,10.40
2018-09-04T22:20:41.445Z,9.43
2018-09-04T22:23:46.372Z,9.80
2018-09-04T22:26:51.306Z,9.43
2018-09-04T22:29:56.220Z,9.57
2018-09-04T22:33:01.141Z,10.03
2018-09-04T22:36:06.329Z,9.53
2018-09-04T22:39:11.259Z,9.83
2018-09-04T22:42:16.165Z,9.80
2018-09-04T22:45:21.096Z,10.40
2018-09-04T22:48:26.004Z,9.87
2018-09-04T22:51:37.452Z,10.23
2018-09-04T22:54:42.389Z,9.67
2018-09-04T22:57:47.313Z,9.63
2018-09-04T23:00:52.280Z,9.73
2018-09-04T23:03:57.637Z,10.43
2018-09-04T23:07:02.595Z,10.23
2018-09-04T23:10:07.660Z,10.30
2018-09-04T23:13:12.585Z,10.47
2018-09-04T23:16:17.548Z,10.10
2018-09-04T23:19:22.457Z,10.33
2018-09-04T23:22:27.403Z,10.27
2018-09-04T23:25:32.321Z,9.80
2018-09-04T23:28:37.245Z,10.70
2018-09-04T23:31:42.152Z,10.37
2018-09-04T23:34:47.065Z,9.60
2018-09-04T23:37:51.980Z,9.97
2018-09-04T23:40:56.897Z,10.80
2018-09-04T23:44:01.876Z,10.50
2018-09-04T23:47:06.813Z,9.47
2018-09-04T23:50:11.748Z,10.83
2018-09-04T23:53:16.677Z,9.23
2018-09-04T23:56:21.624Z,10.10
2018-09-04T23:59:26.537Z,10.23
